CheckWX is a tool to help pilots better visualize weather data.  It is not intended as a substitute for an official pre-flight weather briefing.

17:30:03 UTC

KJRB METAR
Downtown Manhattan / Wall St Heliport
New York, New York, USA
Current

34 mins ago

KJRB 071656Z AUTO 00000KT 10SM CLR 19/01 A2992 RMK AO2 SLP130 T01890006
Observed
Apr-7 @ 16:56 UTC
Visibility
Flight Rules
VFR
Cloud Levels
  • Clear skies
Temperature
19°C / 66°F
Dewpoint
C / 34°F
Humidity
30%
Altimeter
29.92" Hg
Pressure
1013.22 hPa
Previous

2 hours ago

KJRB 071556Z AUTO 21005KT 10SM CLR 16/02 A2995 RMK AO2 SLP141 T01610017
Observed
Apr-7 @ 15:56 UTC
Wind
  • 210° at 5 KTS
Visibility
Flight Rules
VFR
Cloud Levels
  • Clear skies
Temperature
16°C / 61°F
Dewpoint
C / 36°F
Humidity
39%
Altimeter
29.95" Hg
Pressure
1014.22 hPa
Previous

3 hours ago

KJRB 071456Z AUTO 24005KT 10SM SCT120 15/01 A2998 RMK AO2 SLP150 T01500006 58008
Observed
Apr-7 @ 14:56 UTC
Wind
  • 240° at 5 KTS
Visibility
Flight Rules
VFR
Cloud Levels
  • Scattered at 12,000' AGL
Temperature
15°C / 59°F
Dewpoint
C / 34°F
Humidity
39%
Altimeter
29.98" Hg
Pressure
1015.22 hPa